Pietro Novelli — IOTQ — position and weather

sailwx.info

Track history (hours):
 
Tides and Currents Weather Stations Pressure Air Temp Water Temp Dewpoint Dewpoint Depression Visibility Wind Speed Wind Dir Waves Ship Positions

Pietro Novelli

Last reported at 2016-May-28 07:33 UTC. Time now 2016-May-28 07:57 UTC.
Position N 38°28' E 014°58'.

Length 91 m; draft 3.7 m.

Type: Ship. MMSI: 247000300.

Date/timePositionNaut miles runAvg speedWind from/ knotsBaromVisibWave heightAir tempDewpointWater temp
2016-May-28 07:33N 38°28' E 014°58'4 3.6
2016-May-28 06:34N 38°25' E 014°59'1413.6
2016-May-28 05:34N 38°18' E 015°14'5 4.5
2016-May-28 04:34N 38°13' E 015°15'0 0.0
2016-May-28 03:33N 38°13' E 015°15'0 0.0
2016-May-28 02:34N 38°13' E 015°15'0 0.0
2016-May-28 01:34N 38°13' E 015°15'0 0.0
2016-May-28 00:34N 38°13' E 015°15'0 0.0
2016-May-27 23:34N 38°13' E 015°15'0 0.0
2016-May-27 22:33N 38°13' E 015°15'0 0.0
2016-May-27 21:34N 38°13' E 015°15'0 0.0
2016-May-27 20:34N 38°13' E 015°15'0 0.0
2016-May-27 19:33N 38°13' E 015°15'0 0.0
2016-May-27 18:34N 38°13' E 015°15'4 3.8
2016-May-27 17:33N 38°17' E 015°16'1413.9
2016-May-27 16:33N 38°24' E 015°01'5 4.8
2016-May-27 15:33N 38°28' E 014°57'6 5.4
2016-May-27 14:31N 38°33' E 014°54'7 6.7
2016-May-27 13:33N 38°36' E 015°01'10 9.2
2016-May-27 12:31N 38°44' E 015°09'6 5.5
2016-May-27 11:25N 38°48' E 015°14'3 3.4
2016-May-27 10:31N 38°46' E 015°11'9 9.7
2016-May-27 09:33N 38°38' E 015°05'1110.8
2016-May-27 08:33N 38°33' E 014°52'6 6.5
2016-May-27 07:33N 38°28' E 014°57'4 3.6
2016-May-27 06:33N 38°25' E 014°59'1413.8
2016-May-27 05:34N 38°18' E 015°14'5 4.6
2016-May-27 04:34N 38°13' E 015°15'0 0.0
2016-May-27 03:34N 38°13' E 015°15'0 0.0
2016-May-27 02:34N 38°13' E 015°15'0 0.0
2016-May-27 01:34N 38°13' E 015°15'0 0.0
2016-May-27 00:34N 38°13' E 015°15'0 0.0
2016-May-26 23:34N 38°13' E 015°15'0 0.0
2016-May-26 22:33N 38°13' E 015°15'0 0.0
2016-May-26 21:33N 38°13' E 015°15'0 0.0
2016-May-26 20:34N 38°13' E 015°15'0 0.0
2016-May-26 19:33N 38°13' E 015°15'0 0.0
2016-May-26 18:33N 38°13' E 015°15'2 1.6
2016-May-26 17:33N 38°14' E 015°16'1313.0
2016-May-26 16:33N 38°23' E 015°03'7 7.2
2016-May-26 15:33N 38°28' E 014°57'6 6.4
2016-May-26 14:31N 38°33' E 014°52'6 6.2
2016-May-26 13:33N 38°33' E 014°45'7 7.0
2016-May-26 12:33N 38°33' E 014°36'11 7.8
2016-May-26 11:08N 38°32' E 014°22'913.3
2016-May-26 10:29N 38°33' E 014°33'7 7.6
2016-May-26 09:33N 38°33' E 014°42'8 8.4
2016-May-26 08:33N 38°33' E 014°53'6 6.4
2016-May-26 07:33N 38°28' E 014°57'4 3.5
2016-May-26 06:33N 38°25' E 014°59'1413.9
2016-May-26 05:33N 38°18' E 015°14'5 4.7
2016-May-26 04:33N 38°13' E 015°15'0 0.3
2016-May-26 03:33N 38°13' E 015°15'0 0.0
2016-May-26 02:33N 38°13' E 015°15'0 0.0
2016-May-26 01:33N 38°13' E 015°15'0 0.0
2016-May-26 00:33N 38°13' E 015°15'0 0.0
2016-May-25 23:33N 38°13' E 015°15'0 0.0
2016-May-25 22:33N 38°13' E 015°15'0 0.0
2016-May-25 21:32N 38°13' E 015°15'0 0.0
2016-May-25 20:33N 38°13' E 015°15'0 0.0
2016-May-25 19:33N 38°13' E 015°15'0 0.0
2016-May-25 18:33N 38°13' E 015°15'0 0.0
2016-May-25 17:33N 38°13' E 015°15'0 0.0
2016-May-25 16:33N 38°13' E 015°15'0 0.3
2016-May-25 15:33N 38°13' E 015°15'8 8.3
2016-May-25 14:33N 38°20' E 015°09'10 9.9
2016-May-25 13:33N 38°26' E 014°58'9 4.2
2016-May-25 11:23N 38°33' E 014°52'6 5.4
2016-May-25 10:13N 38°27' E 014°54'3 4.3
2016-May-25 09:33N 38°28' E 014°57'4 4.4
2016-May-25 08:33N 38°25' E 015°01'1413.9
2016-May-25 07:33N 38°17' E 015°15'4 3.8
2016-May-25 06:33N 38°13' E 015°15'1312.5
2016-May-25 05:33N 38°22' E 015°05'8 8.2
2016-May-25 04:33N 38°28' E 014°57'0 0.0
2016-May-25 03:05N 38°28' E 014°57'0 0.0
2016-May-25 01:32N 38°28' E 014°57'0 0.0
2016-May-25 00:34N 38°28' E 014°57'0 0.0
2016-May-24 21:33N 38°28' E 014°57'0 0.0
2016-May-24 20:29N 38°28' E 014°57'0 0.0
2016-May-24 19:27N 38°28' E 014°57'3 3.4
2016-May-24 18:30N 38°25' E 014°58'1212.5
2016-May-24 17:33N 38°19' E 015°11'6 6.4
2016-May-24 16:33N 38°13' E 015°15'6 6.3
2016-May-24 15:33N 38°19' E 015°11'1210.0
2016-May-24 14:19N 38°26' E 014°58'1 0.9
2016-May-24 13:26N 38°26' E 014°58'0 0.0
2016-May-24 10:07N 38°26' E 014°58'1 1.2
2016-May-24 09:03N 38°25' E 014°58'713.6
2016-May-24 08:33N 38°22' E 015°06'1211.5
2016-May-24 07:33N 38°13' E 015°16'1 0.9
2016-May-24 06:29N 38°14' E 015°16'1313.4
2016-May-24 05:33N 38°22' E 015°04'8 1.9
2016-May-24 01:20N 38°28' E 014°57'0 0.0
2016-May-23 23:30N 38°28' E 014°57'0 0.0
2016-May-23 22:31N 38°28' E 014°57'0 0.0
2016-May-23 21:33N 38°28' E 014°57'0 0.0
2016-May-23 20:30N 38°28' E 014°57'0 0.0
2016-May-23 19:33N 38°28' E 014°57'3 2.4
2016-May-23 18:26N 38°26' E 014°58'8 9.0
2016-May-23 17:33N 38°21' E 015°07'1010.0
2016-May-23 16:32N 38°13' E 015°15'0 0.0
2016-May-23 15:33N 38°13' E 015°15'5 5.3
2016-May-23 14:33N 38°18' E 015°13'1411.7
2016-May-23 13:22N 38°25' E 014°58'2 1.9
2016-May-23 12:33N 38°27' E 014°58'3 1.2
2016-May-23 10:10N 38°27' E 014°54'3 4.1
2016-May-23 09:32N 38°28' E 014°57'8 7.7
2016-May-23 08:33N 38°23' E 015°04'1312.8
2016-May-23 07:32N 38°13' E 015°16'1 0.7
2016-May-23 06:31N 38°14' E 015°16'1313.4
2016-May-23 05:33N 38°23' E 015°04'7 7.2
2016-May-23 04:33N 38°28' E 014°57'0 0.0
2016-May-23 03:33N 38°28' E 014°57'0 0.0
2016-May-23 02:34N 38°28' E 014°57'0 0.0
2016-May-23 01:33N 38°28' E 014°57'0 0.0
2016-May-23 00:33N 38°28' E 014°57'0 0.0
2016-May-22 23:34N 38°28' E 014°57'0 0.0
2016-May-22 22:33N 38°28' E 014°57'0 0.0
2016-May-22 21:33N 38°28' E 014°57'0 0.0
2016-May-22 20:33N 38°28' E 014°57'0 0.0
2016-May-22 19:32N 38°28' E 014°57'2 1.8
2016-May-22 18:33N 38°27' E 014°58'10 9.7
2016-May-22 17:33N 38°21' E 015°08'9 9.2
2016-May-22 16:33N 38°13' E 015°15'4 4.1
2016-May-22 15:34N 38°17' E 015°15'1413.8
2016-May-22 14:33N 38°25' E 014°60'4 3.6
2016-May-22 13:32N 38°28' E 014°58'6 5.1
2016-May-22 12:17N 38°32' E 014°51'2 2.4
2016-May-22 11:33N 38°33' E 014°52'7 3.3
2016-May-22 09:34N 38°28' E 014°58'4 4.1
2016-May-22 08:33N 38°25' E 015°00'1413.8
2016-May-22 07:33N 38°17' E 015°15'4 4.4
2016-May-22 06:33N 38°13' E 015°15'0 0.0
2016-May-22 05:33N 38°13' E 015°15'0 0.0
2016-May-22 03:16N 38°13' E 015°15'0 0.0
2016-May-22 02:29N 38°13' E 015°15'0 0.0
2016-May-22 01:12N 38°13' E 015°15'0 0.0
2016-May-22 00:20N 38°13' E 015°15'0 0.0
2016-May-21 23:26N 38°13' E 015°15'0 0.0
2016-May-21 21:28N 38°13' E 015°15'0 0.0
2016-May-21 20:33N 38°13' E 015°15'0 0.0
2016-May-21 19:26N 38°13' E 015°15'0 0.1
2016-May-21 18:34N 38°13' E 015°15'10 9.9
2016-May-21 17:34N 38°21' E 015°07'9 9.2
2016-May-21 16:34N 38°27' E 014°58'7 7.0
2016-May-21 15:33N 38°33' E 014°54'1 0.2
2016-May-21 09:33N 38°33' E 014°52'2 1.9
2016-May-21 08:22N 38°32' E 014°55'5 5.6
2016-May-21 07:33N 38°28' E 014°57'5 5.0
2016-May-21 06:34N 38°24' E 015°01'1212.2
2016-May-21 05:33N 38°17' E 015°14'4 3.9
2016-May-21 04:26N 38°13' E 015°15'0 0.0
2016-May-21 03:23N 38°13' E 015°15'0 0.0
2016-May-21 02:33N 38°13' E 015°15'0 0.0
2016-May-21 01:24N 38°13' E 015°15'0 0.0
2016-May-21 00:20N 38°13' E 015°15'0 0.0
2016-May-20 23:32N 38°13' E 015°15'0 0.0
2016-May-20 22:26N 38°13' E 015°15'0 0.0
2016-May-20 21:30N 38°13' E 015°15'0 0.0
2016-May-20 20:29N 38°13' E 015°15'0 0.0
2016-May-20 19:15N 38°13' E 015°15'0 0.0
2016-May-20 18:33N 38°13' E 015°15'5 5.0
2016-May-20 17:33N 38°18' E 015°14'1413.7
2016-May-20 16:33N 38°25' E 014°59'4 3.6
2016-May-20 15:33N 38°28' E 014°57'6 6.5
2016-May-20 14:33N 38°33' E 014°52'1111.0
2016-May-20 13:34N 38°38' E 015°05'8 7.7
2016-May-20 12:33N 38°45' E 015°09'5 4.7
2016-May-20 11:32N 38°48' E 015°14'12 6.2
2016-May-20 09:33N 38°38' E 015°05'1110.9
2016-May-20 08:33N 38°33' E 014°52'6 6.5
2016-May-20 07:33N 38°28' E 014°57'5 4.7
2016-May-20 06:33N 38°24' E 015°01'1312.9
2016-May-20 05:32N 38°18' E 015°15'5 4.6
2016-May-20 04:32N 38°13' E 015°15'0 0.0
2016-May-20 03:33N 38°13' E 015°15'0 0.0
2016-May-20 02:33N 38°13' E 015°15'0 0.0
2016-May-20 01:33N 38°13' E 015°15'0 0.0
2016-May-20 00:31N 38°13' E 015°15'0 0.0
2016-May-19 23:30N 38°13' E 015°14'0 0.0
2016-May-19 22:33N 38°13' E 015°15'0 0.0
2016-May-19 21:33N 38°13' E 015°15'0 0.0
2016-May-19 20:33N 38°13' E 015°15'0 0.0
2016-May-19 19:28N 38°13' E 015°15'0 0.0
2016-May-19 18:33N 38°13' E 015°15'2 1.8
2016-May-19 17:33N 38°14' E 015°16'1413.6
2016-May-19 16:33N 38°23' E 015°03'7 6.4
2016-May-19 15:32N 38°28' E 014°57'7 6.7
2016-May-19 14:33N 38°33' E 014°52'0 0.0
2016-May-19 08:33N 38°33' E 014°53'6 6.2
2016-May-19 07:32N 38°28' E 014°57'4 4.5
2016-May-19 06:34N 38°24' E 015°00'1313.3
2016-May-19 05:33N 38°17' E 015°15'4 4.4
2016-May-19 04:33N 38°13' E 015°15'0 0.0
2016-May-19 03:27N 38°13' E 015°15'0 0.0
2016-May-19 02:33N 38°13' E 015°15'0 0.0
2016-May-19 01:30N 38°13' E 015°15'0 0.0
2016-May-19 00:33N 38°13' E 015°15'0 0.0
2016-May-18 23:29N 38°13' E 015°15'0 0.0
2016-May-18 22:30N 38°13' E 015°15'0 0.0
2016-May-18 21:20N 38°13' E 015°15'0 0.0
2016-May-18 20:33N 38°13' E 015°15'0 0.0
2016-May-18 19:32N 38°13' E 015°15'0 0.0
2016-May-18 18:33N 38°13' E 015°15'4 4.5
2016-May-18 17:33N 38°17' E 015°14'1413.8
2016-May-18 16:33N 38°25' E 014°59'4 3.7
2016-May-18 15:33N 38°28' E 014°57'6 6.4
2016-May-18 14:33N 38°33' E 014°52'24 7.4
2016-May-18 11:17N 38°32' E 014°22'24 8.8
2016-May-18 08:33N 38°33' E 014°52'  
Track history (hours):
 
Tides and Currents Weather Stations Pressure Air Temp Water Temp Dewpoint Dewpoint Depression Visibility Wind Speed Wind Dir Waves Ship Positions

Pietro Novelli

Last reported at 2016-May-28 07:33 UTC. Time now 2016-May-28 07:57 UTC.
Position N 38°28' E 014°58'.

Length 91 m; draft 3.7 m.

Type: Ship. MMSI: 247000300.

Date/timePositionNaut miles runAvg speedWind from/ knotsBaromVisibWave heightAir tempDewpointWater temp
2016-May-28 07:33N 38°28' E 014°58'4 3.6
2016-May-28 06:34N 38°25' E 014°59'1413.6
2016-May-28 05:34N 38°18' E 015°14'5 4.5
2016-May-28 04:34N 38°13' E 015°15'0 0.0
2016-May-28 03:33N 38°13' E 015°15'0 0.0
2016-May-28 02:34N 38°13' E 015°15'0 0.0
2016-May-28 01:34N 38°13' E 015°15'0 0.0
2016-May-28 00:34N 38°13' E 015°15'0 0.0
2016-May-27 23:34N 38°13' E 015°15'0 0.0
2016-May-27 22:33N 38°13' E 015°15'0 0.0
2016-May-27 21:34N 38°13' E 015°15'0 0.0
2016-May-27 20:34N 38°13' E 015°15'0 0.0
2016-May-27 19:33N 38°13' E 015°15'0 0.0
2016-May-27 18:34N 38°13' E 015°15'4 3.8
2016-May-27 17:33N 38°17' E 015°16'1413.9
2016-May-27 16:33N 38°24' E 015°01'5 4.8
2016-May-27 15:33N 38°28' E 014°57'6 5.4
2016-May-27 14:31N 38°33' E 014°54'7 6.7
2016-May-27 13:33N 38°36' E 015°01'10 9.2
2016-May-27 12:31N 38°44' E 015°09'6 5.5
2016-May-27 11:25N 38°48' E 015°14'3 3.4
2016-May-27 10:31N 38°46' E 015°11'9 9.7
2016-May-27 09:33N 38°38' E 015°05'1110.8
2016-May-27 08:33N 38°33' E 014°52'6 6.5
2016-May-27 07:33N 38°28' E 014°57'4 3.6
2016-May-27 06:33N 38°25' E 014°59'1413.8
2016-May-27 05:34N 38°18' E 015°14'5 4.6
2016-May-27 04:34N 38°13' E 015°15'0 0.0
2016-May-27 03:34N 38°13' E 015°15'0 0.0
2016-May-27 02:34N 38°13' E 015°15'0 0.0
2016-May-27 01:34N 38°13' E 015°15'0 0.0
2016-May-27 00:34N 38°13' E 015°15'0 0.0
2016-May-26 23:34N 38°13' E 015°15'0 0.0
2016-May-26 22:33N 38°13' E 015°15'0 0.0
2016-May-26 21:33N 38°13' E 015°15'0 0.0
2016-May-26 20:34N 38°13' E 015°15'0 0.0
2016-May-26 19:33N 38°13' E 015°15'0 0.0
2016-May-26 18:33N 38°13' E 015°15'2 1.6
2016-May-26 17:33N 38°14' E 015°16'1313.0
2016-May-26 16:33N 38°23' E 015°03'7 7.2
2016-May-26 15:33N 38°28' E 014°57'6 6.4
2016-May-26 14:31N 38°33' E 014°52'6 6.2
2016-May-26 13:33N 38°33' E 014°45'7 7.0
2016-May-26 12:33N 38°33' E 014°36'11 7.8
2016-May-26 11:08N 38°32' E 014°22'913.3
2016-May-26 10:29N 38°33' E 014°33'7 7.6
2016-May-26 09:33N 38°33' E 014°42'8 8.4
2016-May-26 08:33N 38°33' E 014°53'6 6.4
2016-May-26 07:33N 38°28' E 014°57'4 3.5
2016-May-26 06:33N 38°25' E 014°59'1413.9
2016-May-26 05:33N 38°18' E 015°14'5 4.7
2016-May-26 04:33N 38°13' E 015°15'0 0.3
2016-May-26 03:33N 38°13' E 015°15'0 0.0
2016-May-26 02:33N 38°13' E 015°15'0 0.0
2016-May-26 01:33N 38°13' E 015°15'0 0.0
2016-May-26 00:33N 38°13' E 015°15'0 0.0
2016-May-25 23:33N 38°13' E 015°15'0 0.0
2016-May-25 22:33N 38°13' E 015°15'0 0.0
2016-May-25 21:32N 38°13' E 015°15'0 0.0
2016-May-25 20:33N 38°13' E 015°15'0 0.0
2016-May-25 19:33N 38°13' E 015°15'0 0.0
2016-May-25 18:33N 38°13' E 015°15'0 0.0
2016-May-25 17:33N 38°13' E 015°15'0 0.0
2016-May-25 16:33N 38°13' E 015°15'0 0.3
2016-May-25 15:33N 38°13' E 015°15'8 8.3
2016-May-25 14:33N 38°20' E 015°09'10 9.9
2016-May-25 13:33N 38°26' E 014°58'9 4.2
2016-May-25 11:23N 38°33' E 014°52'6 5.4
2016-May-25 10:13N 38°27' E 014°54'3 4.3
2016-May-25 09:33N 38°28' E 014°57'4 4.4
2016-May-25 08:33N 38°25' E 015°01'1413.9
2016-May-25 07:33N 38°17' E 015°15'4 3.8
2016-May-25 06:33N 38°13' E 015°15'1312.5
2016-May-25 05:33N 38°22' E 015°05'8 8.2
2016-May-25 04:33N 38°28' E 014°57'0 0.0
2016-May-25 03:05N 38°28' E 014°57'0 0.0
2016-May-25 01:32N 38°28' E 014°57'0 0.0
2016-May-25 00:34N 38°28' E 014°57'0 0.0
2016-May-24 21:33N 38°28' E 014°57'0 0.0
2016-May-24 20:29N 38°28' E 014°57'0 0.0
2016-May-24 19:27N 38°28' E 014°57'3 3.4
2016-May-24 18:30N 38°25' E 014°58'1212.5
2016-May-24 17:33N 38°19' E 015°11'6 6.4
2016-May-24 16:33N 38°13' E 015°15'6 6.3
2016-May-24 15:33N 38°19' E 015°11'1210.0
2016-May-24 14:19N 38°26' E 014°58'1 0.9
2016-May-24 13:26N 38°26' E 014°58'0 0.0
2016-May-24 10:07N 38°26' E 014°58'1 1.2
2016-May-24 09:03N 38°25' E 014°58'713.6
2016-May-24 08:33N 38°22' E 015°06'1211.5
2016-May-24 07:33N 38°13' E 015°16'1 0.9
2016-May-24 06:29N 38°14' E 015°16'1313.4
2016-May-24 05:33N 38°22' E 015°04'8 1.9
2016-May-24 01:20N 38°28' E 014°57'0 0.0
2016-May-23 23:30N 38°28' E 014°57'0 0.0
2016-May-23 22:31N 38°28' E 014°57'0 0.0
2016-May-23 21:33N 38°28' E 014°57'0 0.0
2016-May-23 20:30N 38°28' E 014°57'0 0.0
2016-May-23 19:33N 38°28' E 014°57'3 2.4
2016-May-23 18:26N 38°26' E 014°58'8 9.0
2016-May-23 17:33N 38°21' E 015°07'1010.0
2016-May-23 16:32N 38°13' E 015°15'0 0.0
2016-May-23 15:33N 38°13' E 015°15'5 5.3
2016-May-23 14:33N 38°18' E 015°13'1411.7
2016-May-23 13:22N 38°25' E 014°58'2 1.9
2016-May-23 12:33N 38°27' E 014°58'3 1.2
2016-May-23 10:10N 38°27' E 014°54'3 4.1
2016-May-23 09:32N 38°28' E 014°57'8 7.7
2016-May-23 08:33N 38°23' E 015°04'1312.8
2016-May-23 07:32N 38°13' E 015°16'1 0.7
2016-May-23 06:31N 38°14' E 015°16'1313.4
2016-May-23 05:33N 38°23' E 015°04'7 7.2
2016-May-23 04:33N 38°28' E 014°57'0 0.0
2016-May-23 03:33N 38°28' E 014°57'0 0.0
2016-May-23 02:34N 38°28' E 014°57'0 0.0
2016-May-23 01:33N 38°28' E 014°57'0 0.0
2016-May-23 00:33N 38°28' E 014°57'0 0.0
2016-May-22 23:34N 38°28' E 014°57'0 0.0
2016-May-22 22:33N 38°28' E 014°57'0 0.0
2016-May-22 21:33N 38°28' E 014°57'0 0.0
2016-May-22 20:33N 38°28' E 014°57'0 0.0
2016-May-22 19:32N 38°28' E 014°57'2 1.8
2016-May-22 18:33N 38°27' E 014°58'10 9.7
2016-May-22 17:33N 38°21' E 015°08'9 9.2
2016-May-22 16:33N 38°13' E 015°15'4 4.1
2016-May-22 15:34N 38°17' E 015°15'1413.8
2016-May-22 14:33N 38°25' E 014°60'4 3.6
2016-May-22 13:32N 38°28' E 014°58'6 5.1
2016-May-22 12:17N 38°32' E 014°51'2 2.4
2016-May-22 11:33N 38°33' E 014°52'7 3.3
2016-May-22 09:34N 38°28' E 014°58'4 4.1
2016-May-22 08:33N 38°25' E 015°00'1413.8
2016-May-22 07:33N 38°17' E 015°15'4 4.4
2016-May-22 06:33N 38°13' E 015°15'0 0.0
2016-May-22 05:33N 38°13' E 015°15'0 0.0
2016-May-22 03:16N 38°13' E 015°15'0 0.0
2016-May-22 02:29N 38°13' E 015°15'0 0.0
2016-May-22 01:12N 38°13' E 015°15'0 0.0
2016-May-22 00:20N 38°13' E 015°15'0 0.0
2016-May-21 23:26N 38°13' E 015°15'0 0.0
2016-May-21 21:28N 38°13' E 015°15'0 0.0
2016-May-21 20:33N 38°13' E 015°15'0 0.0
2016-May-21 19:26N 38°13' E 015°15'0 0.1
2016-May-21 18:34N 38°13' E 015°15'10 9.9
2016-May-21 17:34N 38°21' E 015°07'9 9.2
2016-May-21 16:34N 38°27' E 014°58'7 7.0
2016-May-21 15:33N 38°33' E 014°54'1 0.2
2016-May-21 09:33N 38°33' E 014°52'2 1.9
2016-May-21 08:22N 38°32' E 014°55'5 5.6
2016-May-21 07:33N 38°28' E 014°57'5 5.0
2016-May-21 06:34N 38°24' E 015°01'1212.2
2016-May-21 05:33N 38°17' E 015°14'4 3.9
2016-May-21 04:26N 38°13' E 015°15'0 0.0
2016-May-21 03:23N 38°13' E 015°15'0 0.0
2016-May-21 02:33N 38°13' E 015°15'0 0.0
2016-May-21 01:24N 38°13' E 015°15'0 0.0
2016-May-21 00:20N 38°13' E 015°15'0 0.0
2016-May-20 23:32N 38°13' E 015°15'0 0.0
2016-May-20 22:26N 38°13' E 015°15'0 0.0
2016-May-20 21:30N 38°13' E 015°15'0 0.0
2016-May-20 20:29N 38°13' E 015°15'0 0.0
2016-May-20 19:15N 38°13' E 015°15'0 0.0
2016-May-20 18:33N 38°13' E 015°15'5 5.0
2016-May-20 17:33N 38°18' E 015°14'1413.7
2016-May-20 16:33N 38°25' E 014°59'4 3.6
2016-May-20 15:33N 38°28' E 014°57'6 6.5
2016-May-20 14:33N 38°33' E 014°52'1111.0
2016-May-20 13:34N 38°38' E 015°05'8 7.7
2016-May-20 12:33N 38°45' E 015°09'5 4.7
2016-May-20 11:32N 38°48' E 015°14'12 6.2
2016-May-20 09:33N 38°38' E 015°05'1110.9
2016-May-20 08:33N 38°33' E 014°52'6 6.5
2016-May-20 07:33N 38°28' E 014°57'5 4.7
2016-May-20 06:33N 38°24' E 015°01'1312.9
2016-May-20 05:32N 38°18' E 015°15'5 4.6
2016-May-20 04:32N 38°13' E 015°15'0 0.0
2016-May-20 03:33N 38°13' E 015°15'0 0.0
2016-May-20 02:33N 38°13' E 015°15'0 0.0
2016-May-20 01:33N 38°13' E 015°15'0 0.0
2016-May-20 00:31N 38°13' E 015°15'0 0.0
2016-May-19 23:30N 38°13' E 015°14'0 0.0
2016-May-19 22:33N 38°13' E 015°15'0 0.0
2016-May-19 21:33N 38°13' E 015°15'0 0.0
2016-May-19 20:33N 38°13' E 015°15'0 0.0
2016-May-19 19:28N 38°13' E 015°15'0 0.0
2016-May-19 18:33N 38°13' E 015°15'2 1.8
2016-May-19 17:33N 38°14' E 015°16'1413.6
2016-May-19 16:33N 38°23' E 015°03'7 6.4
2016-May-19 15:32N 38°28' E 014°57'7 6.7
2016-May-19 14:33N 38°33' E 014°52'0 0.0
2016-May-19 08:33N 38°33' E 014°53'6 6.2
2016-May-19 07:32N 38°28' E 014°57'4 4.5
2016-May-19 06:34N 38°24' E 015°00'1313.3
2016-May-19 05:33N 38°17' E 015°15'4 4.4
2016-May-19 04:33N 38°13' E 015°15'0 0.0
2016-May-19 03:27N 38°13' E 015°15'0 0.0
2016-May-19 02:33N 38°13' E 015°15'0 0.0
2016-May-19 01:30N 38°13' E 015°15'0 0.0
2016-May-19 00:33N 38°13' E 015°15'0 0.0
2016-May-18 23:29N 38°13' E 015°15'0 0.0
2016-May-18 22:30N 38°13' E 015°15'0 0.0
2016-May-18 21:20N 38°13' E 015°15'0 0.0
2016-May-18 20:33N 38°13' E 015°15'0 0.0
2016-May-18 19:32N 38°13' E 015°15'0 0.0
2016-May-18 18:33N 38°13' E 015°15'4 4.5
2016-May-18 17:33N 38°17' E 015°14'1413.8
2016-May-18 16:33N 38°25' E 014°59'4 3.7
2016-May-18 15:33N 38°28' E 014°57'6 6.4
2016-May-18 14:33N 38°33' E 014°52'24 7.4
2016-May-18 11:17N 38°32' E 014°22'24 8.8
2016-May-18 08:33N 38°33' E 014°52'  

Dump ship's entire track history